Ideal, South Dakota
Current Conditions -  °F | °C
As of 2:53 PM on Thursday 27 Nov 2014 (Local Time) from KICR Reporting Station
Overcast Overcast  
Wind Chill: 23°   Ceiling: 11000
Heat Index: 33°   Visibility: 10mi
Dew Point: 17°   Wind: 16mph
Humidity: 52%   Direction: 150°SSE
Pressure: 30.07"   Gusts: 22mph
Location:  43.54°N, 99.9°W
Report Text: KICR 272053Z AUTO 15014G19KT 10SM OVC110 01/M08 A3007 RMK AO2 SLP210 T00061083 56042
Loading
Personal Weather Stations






























Interactive Weather Map New forecast layout! Learn more

10-Day Weather Forecast

Advertisements
Track Severe Weather on mobile